Time;durP1;ratioP1;P1;durP2;ratioP2;P2;SDS_P1;SDS_P2;PMS_P1;PMS_P2;Temp;Humidity;BMP_temperature;BMP_pressure;BME280_temperature;BME280_humidity;BME280_pressure;Samples;Min_cycle;Max_cycle;Signal;HPM_P1;HPM_P2
2023/05/09 00:00:43;;;;;;;2.40;2.13;;;;;;;;;;5011533;28;20762;-91
2023/05/09 00:03:10;;;;;;;2.80;2.60;;;;;;;;;;5012256;28;20391;-91
2023/05/09 00:05:36;;;;;;;3.38;3.08;;;;;;;;;;5011492;28;20389;-91
2023/05/09 00:08:02;;;;;;;4.50;3.13;;;;;;;;;;5012492;28;20385;-91
2023/05/09 00:10:28;;;;;;;3.80;3.47;;;;;;;;;;5011914;28;20391;-90
2023/05/09 00:12:55;;;;;;;3.60;3.30;;;;;;;;;;5012315;28;20854;-90
2023/05/09 00:15:22;;;;;;;4.30;3.97;;;;;;;;;;5011163;28;20393;-91
2023/05/09 00:17:49;;;;;;;4.13;3.80;;;;;;;;;;5012093;28;20415;-90
2023/05/09 00:20:15;;;;;;;3.90;3.60;;;;;;;;;;5012609;28;20415;-91
2023/05/09 00:22:41;;;;;;;3.40;3.20;;;;;;;;;;5010864;28;20435;-90
2023/05/09 00:25:08;;;;;;;4.70;4.30;;;;;;;;;;5011134;28;20389;-90
2023/05/09 00:27:34;;;;;;;4.10;3.80;;;;;;;;;;5010667;28;20385;-90
2023/05/09 00:30:00;;;;;;;4.20;3.70;;;;;;;;;;5010844;28;21048;-90
2023/05/09 00:32:28;;;;;;;3.70;3.40;;;;;;;;;;5011613;28;20412;-90
2023/05/09 00:34:54;;;;;;;3.55;3.25;;;;;;;;;;5010906;28;20435;-90
2023/05/09 00:37:20;;;;;;;3.85;3.13;;;;;;;;;;5010742;28;20381;-91
2023/05/09 00:39:47;;;;;;;3.47;3.20;;;;;;;;;;5012004;28;20466;-90
2023/05/09 00:42:13;;;;;;;4.25;3.22;;;;;;;;;;5010496;28;20439;-92
2023/05/09 00:44:39;;;;;;;4.60;4.20;;;;;;;;;;5010925;28;20427;-91
2023/05/09 00:47:06;;;;;;;4.72;4.32;;;;;;;;;;5010594;28;21019;-90
2023/05/09 00:49:32;;;;;;;5.45;5.05;;;;;;;;;;5011814;28;20376;-91
2023/05/09 00:51:58;;;;;;;5.32;4.93;;;;;;;;;;5011184;28;20416;-90
2023/05/09 00:54:25;;;;;;;6.63;6.00;;;;;;;;;;5010178;28;20477;-91
2023/05/09 00:56:51;;;;;;;7.13;6.68;;;;;;;;;;5010671;28;20385;-89
2023/05/09 00:59:17;;;;;;;8.30;7.53;;;;;;;;;;5010467;28;20762;-91
2023/05/09 01:01:44;;;;;;;8.10;7.35;;;;;;;;;;5011579;28;20388;-91
2023/05/09 01:04:11;;;;;;;6.45;6.05;;;;;;;;;;5010328;28;20389;-90
2023/05/09 01:06:40;;;;;;;6.30;5.90;;;;;;;;;;5011186;28;20431;-91
2023/05/09 01:09:25;;;;;;;5.47;5.07;;;;;;;;;;5011697;28;20400;-90
2023/05/09 01:12:03;;;;;;;4.80;4.35;;;;;;;;;;5011149;28;20416;-90
2023/05/09 01:14:46;;;;;;;3.80;3.50;;;;;;;;;;5011574;28;20387;-91
2023/05/09 01:17:19;;;;;;;4.00;3.65;;;;;;;;;;5010339;28;20389;-91
2023/05/09 01:19:56;;;;;;;3.33;3.13;;;;;;;;;;5011194;28;20474;-90
2023/05/09 01:22:26;;;;;;;3.70;3.50;;;;;;;;;;5009420;28;20373;-90
2023/05/09 01:25:11;;;;;;;4.70;4.18;;;;;;;;;;5011257;28;20377;-91
2023/05/09 01:27:37;;;;;;;6.55;3.92;;;;;;;;;;5011277;28;20373;-90
2023/05/09 01:30:05;;;;;;;3.80;3.50;;;;;;;;;;5009896;28;20431;-91
2023/05/09 01:32:32;;;;;;;4.70;4.40;;;;;;;;;;5009926;28;20906;-90
2023/05/09 01:34:59;;;;;;;4.38;4.07;;;;;;;;;;5011352;28;20442;-90
2023/05/09 01:37:30;;;;;;;4.38;4.10;;;;;;;;;;5009911;28;20398;-91
2023/05/09 01:39:58;;;;;;;4.73;4.33;;;;;;;;;;5011177;28;20424;-91
2023/05/09 01:42:25;;;;;;;4.47;4.13;;;;;;;;;;5010739;28;20396;-91
2023/05/09 01:44:52;;;;;;;4.43;3.83;;;;;;;;;;5008408;28;20392;-91
2023/05/09 01:47:19;;;;;;;4.10;3.43;;;;;;;;;;5002332;28;20416;-90
2023/05/09 01:49:46;;;;;;;3.72;3.50;;;;;;;;;;5009039;28;20388;-91
2023/05/09 01:52:14;;;;;;;4.38;4.07;;;;;;;;;;5007994;28;20404;-90
2023/05/09 01:54:40;;;;;;;4.43;4.13;;;;;;;;;;5009308;28;20385;-91
2023/05/09 01:57:07;;;;;;;4.60;4.28;;;;;;;;;;5010919;28;20388;-89
2023/05/09 01:59:34;;;;;;;4.68;4.40;;;;;;;;;;5007960;28;20921;-89
2023/05/09 02:02:00;;;;;;;4.50;4.20;;;;;;;;;;5009364;28;20395;-89
2023/05/09 02:04:28;;;;;;;4.43;4.03;;;;;;;;;;5005995;28;20373;-90
2023/05/09 02:06:54;;;;;;;3.63;3.40;;;;;;;;;;4998165;28;20380;-90
2023/05/09 02:09:20;;;;;;;4.30;3.83;;;;;;;;;;5010876;28;20419;-90
2023/05/09 02:11:46;;;;;;;3.67;3.22;;;;;;;;;;5009252;28;20388;-89
2023/05/09 02:14:15;;;;;;;4.32;3.65;;;;;;;;;;5010663;28;20391;-89
2023/05/09 02:16:41;;;;;;;3.60;3.35;;;;;;;;;;5010717;28;20905;-90
2023/05/09 02:19:07;;;;;;;3.20;3.00;;;;;;;;;;5009425;28;20902;-89
2023/05/09 02:21:33;;;;;;;3.55;3.28;;;;;;;;;;5020902;28;20393;-89
2023/05/09 02:23:59;;;;;;;3.92;3.63;;;;;;;;;;5020090;28;20377;-90
2023/05/09 02:26:26;;;;;;;3.83;3.42;;;;;;;;;;5018708;28;20381;-89
2023/05/09 02:28:53;;;;;;;4.63;4.13;;;;;;;;;;5013753;28;20462;-90
2023/05/09 02:31:20;;;;;;;4.47;3.85;;;;;;;;;;5013108;28;20408;-91
2023/05/09 02:33:50;;;;;;;3.83;3.40;;;;;;;;;;5012673;28;20446;-89
2023/05/09 02:36:16;;;;;;;3.72;3.42;;;;;;;;;;5013093;28;20879;-90
2023/05/09 02:38:43;;;;;;;3.53;3.23;;;;;;;;;;5012762;28;20419;-90
2023/05/09 02:41:13;;;;;;;3.17;2.88;;;;;;;;;;5013982;28;20758;-90
2023/05/09 02:43:39;;;;;;;3.20;3.00;;;;;;;;;;5009214;28;20386;-90
2023/05/09 02:46:05;;;;;;;4.32;4.03;;;;;;;;;;5002058;28;20410;-91
2023/05/09 02:48:31;;;;;;;5.32;4.93;;;;;;;;;;5012382;28;20377;-93
2023/05/09 02:50:57;;;;;;;6.53;5.97;;;;;;;;;;5003291;28;20381;-91
2023/05/09 02:53:23;;;;;;;5.20;4.80;;;;;;;;;;5012247;28;20769;-89
2023/05/09 02:55:49;;;;;;;5.38;4.88;;;;;;;;;;5006822;28;20385;-90
2023/05/09 02:58:15;;;;;;;4.93;4.53;;;;;;;;;;5012315;28;20830;-89
2023/05/09 03:00:45;;;;;;;4.68;4.28;;;;;;;;;;5012906;28;20496;-89
2023/05/09 03:03:11;;;;;;;5.15;4.78;;;;;;;;;;5011285;28;20401;-91
2023/05/09 03:05:37;;;;;;;5.88;5.28;;;;;;;;;;5011395;28;20389;-90
2023/05/09 03:08:03;;;;;;;6.60;6.00;;;;;;;;;;5006144;28;20437;-89
2023/05/09 03:10:29;;;;;;;5.97;5.57;;;;;;;;;;5011316;28;20468;-90
2023/05/09 03:12:55;;;;;;;6.60;5.93;;;;;;;;;;5003843;28;20427;-91
2023/05/09 03:15:21;;;;;;;6.72;6.13;;;;;;;;;;5011713;28;20381;-90
2023/05/09 03:17:47;;;;;;;7.05;6.35;;;;;;;;;;5013492;28;20973;-89
2023/05/09 03:20:14;;;;;;;7.10;6.50;;;;;;;;;;5013027;28;20499;-89
2023/05/09 03:22:40;;;;;;;8.43;7.55;;;;;;;;;;5003429;28;20388;-89
2023/05/09 03:25:07;;;;;;;7.50;6.63;;;;;;;;;;5002992;28;20480;-89
2023/05/09 03:27:32;;;;;;;6.13;5.72;;;;;;;;;;4995788;28;20382;-89
2023/05/09 03:29:59;;;;;;;6.03;5.63;;;;;;;;;;4991941;28;20469;-90
2023/05/09 03:32:26;;;;;;;6.55;6.05;;;;;;;;;;5010901;28;20424;-89
2023/05/09 03:34:53;;;;;;;7.75;7.15;;;;;;;;;;5004003;28;20379;-89
2023/05/09 03:37:19;;;;;;;6.13;5.53;;;;;;;;;;5005459;28;20471;-89
2023/05/09 03:39:48;;;;;;;7.43;6.78;;;;;;;;;;5002052;28;20410;-89
2023/05/09 03:42:14;;;;;;;5.97;5.40;;;;;;;;;;4998297;28;20821;-89
2023/05/09 03:44:40;;;;;;;6.40;5.80;;;;;;;;;;4992678;28;20452;-89
2023/05/09 03:47:06;;;;;;;6.55;6.05;;;;;;;;;;5010516;28;20414;-90
2023/05/09 03:49:32;;;;;;;7.43;6.78;;;;;;;;;;5001311;28;20388;-90
2023/05/09 03:51:58;;;;;;;7.40;6.90;;;;;;;;;;5011537;28;20397;-91
2023/05/09 03:54:24;;;;;;;7.10;6.50;;;;;;;;;;5011586;28;20413;-90
2023/05/09 03:56:50;;;;;;;7.22;6.72;;;;;;;;;;5011447;28;20403;-91
2023/05/09 03:59:16;;;;;;;8.10;7.03;;;;;;;;;;5012593;28;20415;-91
2023/05/09 04:01:42;;;;;;;7.38;6.78;;;;;;;;;;5011100;28;20918;-91
2023/05/09 04:04:08;;;;;;;7.05;6.50;;;;;;;;;;5012680;28;20388;-91
2023/05/09 04:06:35;;;;;;;7.40;6.70;;;;;;;;;;5012460;28;20380;-91
2023/05/09 04:09:01;;;;;;;7.35;6.85;;;;;;;;;;5012531;28;20396;-90
2023/05/09 04:11:27;;;;;;;7.83;7.03;;;;;;;;;;5010666;28;20389;-91
2023/05/09 04:13:53;;;;;;;7.40;6.80;;;;;;;;;;5011091;28;20412;-90
2023/05/09 04:16:19;;;;;;;9.68;8.88;;;;;;;;;;5011767;28;20389;-92
2023/05/09 04:18:45;;;;;;;7.97;7.47;;;;;;;;;;5010938;28;20428;-91
2023/05/09 04:21:11;;;;;;;8.65;8.05;;;;;;;;;;5011747;28;20388;-91
2023/05/09 04:23:38;;;;;;;10.70;9.68;;;;;;;;;;5010411;28;20898;-91
2023/05/09 04:26:04;;;;;;;9.20;8.35;;;;;;;;;;5010621;28;20381;-91
2023/05/09 04:28:30;;;;;;;10.80;9.80;;;;;;;;;;5010523;28;20385;-92
2023/05/09 04:30:56;;;;;;;14.75;13.35;;;;;;;;;;5010782;28;20417;-92
2023/05/09 04:33:23;;;;;;;22.15;19.88;;;;;;;;;;5010419;28;20393;-91
2023/05/09 04:35:49;;;;;;;19.70;17.73;;;;;;;;;;5005100;28;20373;-91
2023/05/09 04:38:16;;;;;;;18.40;16.70;;;;;;;;;;5012112;28;20432;-91
2023/05/09 04:40:42;;;;;;;27.08;23.05;;;;;;;;;;5011845;28;20401;-91
2023/05/09 04:43:08;;;;;;;26.13;21.48;;;;;;;;;;5010486;28;20411;-90
2023/05/09 04:45:34;;;;;;;22.87;20.50;;;;;;;;;;5010293;28;20396;-92
2023/05/09 04:48:00;;;;;;;22.98;20.67;;;;;;;;;;5010589;28;20391;-91
2023/05/09 04:50:26;;;;;;;21.80;19.67;;;;;;;;;;5006701;28;20389;-90
2023/05/09 04:52:52;;;;;;;22.08;19.83;;;;;;;;;;5010282;28;20722;-90
2023/05/09 04:55:18;;;;;;;24.63;22.13;;;;;;;;;;5005704;28;20396;-91
2023/05/09 04:57:44;;;;;;;23.48;21.05;;;;;;;;;;5007863;28;20396;-91
2023/05/09 05:00:11;;;;;;;24.77;21.97;;;;;;;;;;5009070;28;20443;-90
2023/05/09 05:02:37;;;;;;;23.48;20.90;;;;;;;;;;5007942;28;20409;-91
2023/05/09 05:05:03;;;;;;;25.30;22.65;;;;;;;;;;5010452;28;20381;-91
2023/05/09 05:07:29;;;;;;;26.70;23.38;;;;;;;;;;5010638;28;20381;-90
2023/05/09 05:09:55;;;;;;;31.48;24.45;;;;;;;;;;5008872;28;20744;-89
2023/05/09 05:12:21;;;;;;;32.92;26.20;;;;;;;;;;5010872;28;20384;-90
2023/05/09 05:14:47;;;;;;;29.90;26.00;;;;;;;;;;5005961;28;20798;-91
2023/05/09 05:17:15;;;;;;;29.73;25.33;;;;;;;;;;5009536;28;20480;-90
2023/05/09 05:19:41;;;;;;;32.42;25.45;;;;;;;;;;5009607;28;20417;-91
2023/05/09 05:22:07;;;;;;;29.90;25.90;;;;;;;;;;5010040;28;20399;-91
2023/05/09 05:24:33;;;;;;;27.55;22.67;;;;;;;;;;5010660;28;20389;-90
2023/05/09 05:26:59;;;;;;;25.65;23.05;;;;;;;;;;5010780;28;20823;-91
2023/05/09 05:29:25;;;;;;;22.88;20.75;;;;;;;;;;5010645;28;20447;-90
2023/05/09 05:31:54;;;;;;;22.88;20.55;;;;;;;;;;5009160;28;20428;-90
2023/05/09 05:34:20;;;;;;;22.60;20.30;;;;;;;;;;5014029;28;20385;-91
2023/05/09 05:36:46;;;;;;;18.98;17.38;;;;;;;;;;5010525;28;20722;-90
2023/05/09 05:39:12;;;;;;;18.83;17.23;;;;;;;;;;5009673;28;20424;-92
2023/05/09 05:41:38;;;;;;;16.95;15.60;;;;;;;;;;5010898;28;20385;-91
2023/05/09 05:44:04;;;;;;;20.03;18.13;;;;;;;;;;5009838;28;20423;-90
2023/05/09 05:46:30;;;;;;;18.27;16.77;;;;;;;;;;5010098;28;20393;-90
2023/05/09 05:48:56;;;;;;;17.65;16.15;;;;;;;;;;5010802;28;20998;-90
2023/05/09 05:51:22;;;;;;;16.08;14.88;;;;;;;;;;5008440;28;20403;-91
2023/05/09 05:53:48;;;;;;;16.80;15.30;;;;;;;;;;5011131;28;20399;-92
2023/05/09 05:56:14;;;;;;;17.48;15.93;;;;;;;;;;5011862;28;20405;-91
2023/05/09 05:58:40;;;;;;;20.02;18.05;;;;;;;;;;5009257;28;20390;-88
2023/05/09 06:01:06;;;;;;;16.85;15.45;;;;;;;;;;5009644;28;20858;-88
2023/05/09 06:03:32;;;;;;;16.33;15.02;;;;;;;;;;5014747;28;20436;-87
2023/05/09 06:05:58;;;;;;;15.70;14.40;;;;;;;;;;5015011;28;20396;-88
2023/05/09 06:08:24;;;;;;;18.52;16.92;;;;;;;;;;5013496;28;20712;-88
2023/05/09 06:10:50;;;;;;;16.30;15.03;;;;;;;;;;5014773;28;20400;-89
2023/05/09 06:13:16;;;;;;;17.10;15.60;;;;;;;;;;5013989;28;20423;-89
2023/05/09 06:15:42;;;;;;;18.58;16.88;;;;;;;;;;5013058;28;20384;-90
2023/05/09 06:18:12;;;;;;;17.55;16.10;;;;;;;;;;5014125;28;20491;-89
2023/05/09 06:20:38;;;;;;;18.73;17.00;;;;;;;;;;5014276;28;20408;-88
2023/05/09 06:23:04;;;;;;;16.85;15.63;;;;;;;;;;5014208;28;20417;-89
2023/05/09 06:25:30;;;;;;;15.98;14.57;;;;;;;;;;5014338;28;20381;-89
2023/05/09 06:27:56;;;;;;;15.57;14.27;;;;;;;;;;5014399;28;20393;-88
2023/05/09 06:30:22;;;;;;;14.38;13.10;;;;;;;;;;5014140;28;20459;-88
2023/05/09 06:32:48;;;;;;;13.38;12.27;;;;;;;;;;5014150;28;20385;-89
2023/05/09 06:35:14;;;;;;;15.30;14.00;;;;;;;;;;5014360;28;20385;-92
2023/05/09 06:37:40;;;;;;;14.32;13.13;;;;;;;;;;5013343;28;20393;-85
2023/05/09 06:40:06;;;;;;;15.10;13.95;;;;;;;;;;5014132;28;20940;-89
2023/05/09 06:42:32;;;;;;;15.25;14.15;;;;;;;;;;5013532;28;20389;-90
2023/05/09 06:44:58;;;;;;;18.83;14.82;;;;;;;;;;5014231;28;20809;-89
2023/05/09 06:47:24;;;;;;;16.30;14.88;;;;;;;;;;5013989;28;20388;-89
2023/05/09 06:49:51;;;;;;;16.48;15.18;;;;;;;;;;5013983;28;20389;-90
2023/05/09 06:52:16;;;;;;;16.98;15.68;;;;;;;;;;5012861;28;20425;-90
2023/05/09 06:54:43;;;;;;;15.60;14.40;;;;;;;;;;5013095;28;20424;-90
2023/05/09 06:57:09;;;;;;;14.83;13.60;;;;;;;;;;5012590;28;20421;-90
2023/05/09 06:59:35;;;;;;;15.35;14.05;;;;;;;;;;5013372;28;20425;-89
2023/05/09 07:02:01;;;;;;;14.10;13.10;;;;;;;;;;5013152;28;20377;-89
2023/05/09 07:04:27;;;;;;;14.30;13.10;;;;;;;;;;5012129;28;20469;-90
2023/05/09 07:06:53;;;;;;;15.13;14.02;;;;;;;;;;5012730;28;20878;-90
2023/05/09 07:09:19;;;;;;;16.13;14.73;;;;;;;;;;5005853;28;20377;-88
2023/05/09 07:11:45;;;;;;;14.93;13.75;;;;;;;;;;5013411;28;20972;-89
2023/05/09 07:14:11;;;;;;;15.15;13.98;;;;;;;;;;5013399;28;20389;-89
2023/05/09 07:16:37;;;;;;;14.70;13.60;;;;;;;;;;5013328;28;20389;-88
2023/05/09 07:19:03;;;;;;;14.82;13.40;;;;;;;;;;5012200;28;20408;-90
2023/05/09 07:21:30;;;;;;;11.10;10.35;;;;;;;;;;5012896;28;20858;-88
2023/05/09 07:23:56;;;;;;;9.93;9.23;;;;;;;;;;5012423;28;20483;-89
2023/05/09 07:26:22;;;;;;;11.18;10.43;;;;;;;;;;5011856;28;20373;-88
2023/05/09 07:28:48;;;;;;;10.88;10.07;;;;;;;;;;5012670;28;20874;-88
2023/05/09 07:31:14;;;;;;;9.80;9.10;;;;;;;;;;5011451;28;20448;-88
2023/05/09 07:33:40;;;;;;;9.95;9.25;;;;;;;;;;5012512;28;20392;-89
2023/05/09 07:36:06;;;;;;;11.15;10.45;;;;;;;;;;5012507;28;20395;-89
2023/05/09 07:38:32;;;;;;;9.63;8.95;;;;;;;;;;5011866;28;20472;-90
2023/05/09 07:40:58;;;;;;;9.80;9.20;;;;;;;;;;5012076;28;20467;-89
2023/05/09 07:43:27;;;;;;;9.98;9.27;;;;;;;;;;5011531;28;20377;-89
2023/05/09 07:45:53;;;;;;;10.73;9.93;;;;;;;;;;5011945;28;21067;-89
2023/05/09 07:48:19;;;;;;;10.10;9.40;;;;;;;;;;5011684;28;20472;-89
2023/05/09 07:50:45;;;;;;;9.70;9.00;;;;;;;;;;5012753;28;20400;-89
2023/05/09 07:53:11;;;;;;;9.35;8.75;;;;;;;;;;5012464;28;20385;-89
2023/05/09 07:55:37;;;;;;;8.68;8.10;;;;;;;;;;5011435;28;20385;-90
2023/05/09 07:58:03;;;;;;;9.43;8.73;;;;;;;;;;5010881;28;20443;-88
2023/05/09 08:00:29;;;;;;;10.65;9.95;;;;;;;;;;5011679;28;20951;-89
2023/05/09 08:02:55;;;;;;;9.95;9.23;;;;;;;;;;5012078;28;20404;-88
2023/05/09 08:05:21;;;;;;;9.60;8.90;;;;;;;;;;5010688;28;20381;-88
2023/05/09 08:07:47;;;;;;;8.77;8.27;;;;;;;;;;5010975;28;20377;-89
2023/05/09 08:10:13;;;;;;;8.43;7.93;;;;;;;;;;5012179;28;20412;-89
2023/05/09 08:12:39;;;;;;;7.38;6.88;;;;;;;;;;5010777;28;20400;-88
2023/05/09 08:15:05;;;;;;;6.30;5.90;;;;;;;;;;5010989;28;20384;-87
2023/05/09 08:17:31;;;;;;;6.80;6.30;;;;;;;;;;5012223;28;20384;-88
2023/05/09 08:19:57;;;;;;;6.25;5.70;;;;;;;;;;5011737;28;20929;-88
2023/05/09 08:22:24;;;;;;;5.90;5.50;;;;;;;;;;5010006;28;20452;-87
2023/05/09 08:24:50;;;;;;;6.75;6.25;;;;;;;;;;5012302;28;20936;-87
2023/05/09 08:27:16;;;;;;;5.35;5.05;;;;;;;;;;5012039;28;20393;-88
2023/05/09 08:29:42;;;;;;;5.70;5.20;;;;;;;;;;5012223;28;20451;-84
2023/05/09 08:32:08;;;;;;;6.47;5.93;;;;;;;;;;5011507;28;20440;-88
2023/05/09 08:34:35;;;;;;;5.70;5.30;;;;;;;;;;5012040;28;20404;-87
2023/05/09 08:37:01;;;;;;;7.60;7.00;;;;;;;;;;5012057;28;20385;-87
2023/05/09 08:39:27;;;;;;;6.57;6.10;;;;;;;;;;5000327;28;20444;-86
2023/05/09 08:41:57;;;;;;;7.35;6.68;;;;;;;;;;5011429;28;20384;-86
2023/05/09 08:44:23;;;;;;;6.93;6.43;;;;;;;;;;5012081;28;20377;-86
2023/05/09 08:46:51;;;;;;;6.70;5.68;;;;;;;;;;5012073;28;20385;-86
2023/05/09 08:49:18;;;;;;;5.18;4.75;;;;;;;;;;5011817;28;20392;-86
2023/05/09 08:51:45;;;;;;;5.35;4.85;;;;;;;;;;5005853;28;20454;-86
2023/05/09 08:54:11;;;;;;;5.25;4.90;;;;;;;;;;5010846;28;20450;-86
2023/05/09 08:56:37;;;;;;;5.18;4.78;;;;;;;;;;5011306;28;20392;-84
2023/05/09 08:59:04;;;;;;;5.03;4.73;;;;;;;;;;5011327;28;20451;-86
2023/05/09 09:01:32;;;;;;;4.50;4.10;;;;;;;;;;5010165;28;20392;-86
2023/05/09 09:03:58;;;;;;;4.57;4.22;;;;;;;;;;5011001;28;20388;-86
2023/05/09 09:06:24;;;;;;;3.85;3.55;;;;;;;;;;5010568;28;20377;-87
2023/05/09 09:08:51;;;;;;;3.63;3.33;;;;;;;;;;5011426;28;20396;-86
2023/05/09 09:11:18;;;;;;;3.97;3.67;;;;;;;;;;5007528;28;20435;-86
2023/05/09 09:13:45;;;;;;;3.58;3.35;;;;;;;;;;5011133;28;20384;-85
2023/05/09 09:16:18;;;;;;;5.10;4.60;;;;;;;;;;5011024;28;20466;-85
2023/05/09 09:18:45;;;;;;;4.00;3.60;;;;;;;;;;5010824;28;20412;-86
2023/05/09 09:21:12;;;;;;;3.43;3.13;;;;;;;;;;5010413;28;20384;-86
2023/05/09 09:23:40;;;;;;;3.20;3.00;;;;;;;;;;5009984;28;20791;-86
2023/05/09 09:26:06;;;;;;;3.90;3.60;;;;;;;;;;5013977;28;20408;-83
2023/05/09 09:28:32;;;;;;;4.40;4.00;;;;;;;;;;5016755;28;20381;-86
2023/05/09 09:30:58;;;;;;;3.25;2.95;;;;;;;;;;5013741;28;20405;-86
2023/05/09 09:33:25;;;;;;;1.90;1.80;;;;;;;;;;5015331;28;20389;-85
2023/05/09 09:35:52;;;;;;;2.05;1.92;;;;;;;;;;5014893;28;20405;-86
2023/05/09 09:38:19;;;;;;;2.72;2.53;;;;;;;;;;5012299;28;20419;-87
2023/05/09 09:40:51;;;;;;;3.03;2.55;;;;;;;;;;5015019;28;20421;-86
2023/05/09 09:43:17;;;;;;;3.70;3.40;;;;;;;;;;5014060;28;20381;-87
2023/05/09 09:45:43;;;;;;;2.78;2.55;;;;;;;;;;5015714;28;20751;-86
2023/05/09 09:48:09;;;;;;;1.92;1.70;;;;;;;;;;5014324;28;20384;-87
2023/05/09 09:50:35;;;;;;;1.98;1.65;;;;;;;;;;5015135;28;20389;-87
2023/05/09 09:53:02;;;;;;;1.60;1.50;;;;;;;;;;5014624;28;20389;-87
2023/05/09 09:55:28;;;;;;;1.65;1.55;;;;;;;;;;5020172;28;20900;-87
2023/05/09 09:57:55;;;;;;;2.60;2.20;;;;;;;;;;5020530;28;20417;-85
2023/05/09 10:00:26;;;;;;;3.00;2.47;;;;;;;;;;5014906;28;20447;-88
2023/05/09 10:02:53;;;;;;;3.05;1.83;;;;;;;;;;5014924;28;20388;-87
2023/05/09 10:05:22;;;;;;;2.20;1.52;;;;;;;;;;5016517;28;20384;-86
2023/05/09 10:07:59;;;;;;;1.90;1.65;;;;;;;;;;5015544;28;20467;-86
2023/05/09 10:10:32;;;;;;;3.05;2.08;;;;;;;;;;5014560;28;20884;-85
2023/05/09 10:12:59;;;;;;;1.85;1.65;;;;;;;;;;5014255;28;20384;-87
2023/05/09 10:15:26;;;;;;;2.90;1.92;;;;;;;;;;5014225;28;20419;-85
2023/05/09 10:17:54;;;;;;;2.58;2.20;;;;;;;;;;5013354;28;20412;-85
2023/05/09 10:20:20;;;;;;;2.43;2.20;;;;;;;;;;5014398;28;20433;-83
2023/05/09 10:22:47;;;;;;;3.80;3.42;;;;;;;;;;5013253;28;20458;-84
2023/05/09 10:25:27;;;;;;;3.58;3.00;;;;;;;;;;5014498;28;20480;-84
2023/05/09 10:27:53;;;;;;;1.70;1.15;;;;;;;;;;5013956;28;20470;-85
2023/05/09 10:30:27;;;;;;;2.47;1.30;;;;;;;;;;5129146;23;20465;-80
2023/05/09 10:32:54;;;;;;;1.45;1.30;;;;;;;;;;5039204;28;20388;-80
2023/05/09 10:35:24;;;;;;;1.63;1.40;;;;;;;;;;5050709;28;20482;-80
2023/05/09 10:37:50;;;;;;;1.40;1.08;;;;;;;;;;5045468;28;20393;-82
2023/05/09 10:40:18;;;;;;;2.87;1.90;;;;;;;;;;5053569;28;20543;-79
2023/05/09 10:42:44;;;;;;;1.70;1.58;;;;;;;;;;5051272;28;20385;-80
2023/05/09 10:45:11;;;;;;;1.60;1.50;;;;;;;;;;5033520;28;20864;-80
2023/05/09 10:47:41;;;;;;;1.43;1.20;;;;;;;;;;5037521;28;20381;-80
2023/05/09 10:50:08;;;;;;;1.70;1.13;;;;;;;;;;5052138;28;20811;-79
2023/05/09 10:52:34;;;;;;;1.05;1.00;;;;;;;;;;5053823;28;20435;-79
2023/05/09 10:55:01;;;;;;;1.38;1.27;;;;;;;;;;5053686;28;20435;-80
2023/05/09 10:57:28;;;;;;;1.35;1.20;;;;;;;;;;5053703;28;20373;-80
2023/05/09 10:59:55;;;;;;;1.45;1.10;;;;;;;;;;5053096;28;20401;-80
2023/05/09 11:02:27;;;;;;;1.33;1.10;;;;;;;;;;5053657;28;20871;-80
2023/05/09 11:05:14;;;;;;;1.50;1.00;;;;;;;;;;5039656;28;20855;-80
2023/05/09 11:07:40;;;;;;;1.10;1.00;;;;;;;;;;5053347;28;20915;-80
2023/05/09 11:10:10;;;;;;;2.60;2.30;;;;;;;;;;5052892;28;20472;-80
2023/05/09 11:12:52;;;;;;;3.28;1.23;;;;;;;;;;5050994;28;20381;-82
2023/05/09 11:15:18;;;;;;;1.10;1.00;;;;;;;;;;5041548;28;20434;-81
2023/05/09 11:17:44;;;;;;;1.90;1.17;;;;;;;;;;5033380;28;20403;-81
2023/05/09 11:20:10;;;;;;;2.38;1.48;;;;;;;;;;5032994;28;20445;-80
2023/05/09 11:22:40;;;;;;;1.60;1.15;;;;;;;;;;5034317;28;20383;-81
2023/05/09 11:25:13;;;;;;;1.20;1.10;;;;;;;;;;5034668;28;20903;-80
2023/05/09 11:27:43;;;;;;;2.03;1.00;;;;;;;;;;5033194;28;20383;-81
2023/05/09 11:30:14;;;;;;;3.17;2.13;;;;;;;;;;5032579;28;20900;-81
2023/05/09 11:32:41;;;;;;;1.83;1.70;;;;;;;;;;5033052;28;20414;-79
2023/05/09 11:35:08;;;;;;;2.13;1.23;;;;;;;;;;5042448;28;20381;-81
2023/05/09 11:37:39;;;;;;;2.33;1.25;;;;;;;;;;5042101;28;20834;-82
2023/05/09 11:40:06;;;;;;;2.33;1.70;;;;;;;;;;5041595;28;20425;-81
2023/05/09 11:42:32;;;;;;;1.98;1.77;;;;;;;;;;5032867;28;20502;-80
2023/05/09 11:44:58;;;;;;;2.30;1.60;;;;;;;;;;5032938;28;20451;-78
2023/05/09 11:47:25;;;;;;;0.88;0.80;;;;;;;;;;5039431;28;20386;-79
2023/05/09 11:49:51;;;;;;;2.23;1.10;;;;;;;;;;5046919;28;20470;-78
2023/05/09 11:52:20;;;;;;;1.02;0.90;;;;;;;;;;5049609;28;20383;-80
2023/05/09 11:54:46;;;;;;;3.70;1.10;;;;;;;;;;5035083;28;20387;-78
2023/05/09 11:57:16;;;;;;;1.67;1.40;;;;;;;;;;5046825;28;20874;-81
2023/05/09 11:59:43;;;;;;;2.25;1.20;;;;;;;;;;5034090;28;20768;-80
2023/05/09 12:02:09;;;;;;;1.20;1.10;;;;;;;;;;5032447;28;20914;-81
2023/05/09 12:04:35;;;;;;;2.40;1.20;;;;;;;;;;5031595;28;20387;-81
2023/05/09 12:07:01;;;;;;;1.80;1.27;;;;;;;;;;5031859;28;20445;-81
2023/05/09 12:09:36;;;;;;;2.13;1.20;;;;;;;;;;5036555;28;20862;-81
2023/05/09 12:12:07;;;;;;;1.48;1.25;;;;;;;;;;5048990;28;20390;-81
2023/05/09 12:14:34;;;;;;;1.25;1.15;;;;;;;;;;5038047;28;20462;-81
2023/05/09 12:17:01;;;;;;;2.13;1.23;;;;;;;;;;5032257;28;20391;-81
2023/05/09 12:19:27;;;;;;;1.35;1.00;;;;;;;;;;5034357;28;20910;-81
2023/05/09 12:21:57;;;;;;;3.30;1.30;;;;;;;;;;5032215;28;20414;-81
2023/05/09 12:24:25;;;;;;;1.40;0.95;;;;;;;;;;5037800;28;20470;-81
2023/05/09 12:26:51;;;;;;;0.90;0.90;;;;;;;;;;5048527;28;20470;-81
2023/05/09 12:29:18;;;;;;;2.70;1.23;;;;;;;;;;5031449;28;20496;-81
2023/05/09 12:31:44;;;;;;;1.25;1.10;;;;;;;;;;5039769;28;20412;-81
2023/05/09 12:34:11;;;;;;;2.00;1.20;;;;;;;;;;5048823;28;20443;-81
2023/05/09 12:36:37;;;;;;;1.42;1.00;;;;;;;;;;5037969;28;20391;-81
2023/05/09 12:39:08;;;;;;;3.27;3.07;;;;;;;;;;5033206;28;20502;-80
2023/05/09 12:41:34;;;;;;;1.92;1.15;;;;;;;;;;5051795;28;20750;-81
2023/05/09 12:44:00;;;;;;;1.83;1.30;;;;;;;;;;5051579;28;20392;-80
2023/05/09 12:46:27;;;;;;;1.50;0.90;;;;;;;;;;5051713;28;20401;-80
2023/05/09 12:48:53;;;;;;;1.17;0.82;;;;;;;;;;5051291;28;20404;-80
2023/05/09 12:51:20;;;;;;;1.30;0.80;;;;;;;;;;5037520;28;20396;-80
2023/05/09 12:53:46;;;;;;;2.05;0.85;;;;;;;;;;5051565;28;20392;-80
2023/05/09 12:56:18;;;;;;;1.50;0.90;;;;;;;;;;5051404;28;20461;-81
2023/05/09 12:58:52;;;;;;;1.00;0.90;;;;;;;;;;5049528;28;20932;-80
2023/05/09 13:01:23;;;;;;;1.55;0.80;;;;;;;;;;5051346;28;20439;-80
2023/05/09 13:03:52;;;;;;;0.90;0.90;;;;;;;;;;5051047;28;20846;-80
2023/05/09 13:06:19;;;;;;;1.30;0.98;;;;;;;;;;5036275;28;20410;-80
2023/05/09 13:08:56;;;;;;;2.03;0.90;;;;;;;;;;5032998;28;20391;-80
2023/05/09 13:11:23;;;;;;;0.90;0.90;;;;;;;;;;5041344;28;20373;-80
2023/05/09 13:13:49;;;;;;;2.17;1.10;;;;;;;;;;5033242;28;20375;-80
2023/05/09 13:16:15;;;;;;;2.35;1.25;;;;;;;;;;5031247;28;20386;-80
2023/05/09 13:18:41;;;;;;;1.17;1.15;;;;;;;;;;5030991;28;20923;-81
2023/05/09 13:21:07;;;;;;;2.08;1.30;;;;;;;;;;5041991;28;20484;-80
2023/05/09 13:23:33;;;;;;;3.22;1.20;;;;;;;;;;5043408;28;20391;-80
2023/05/09 13:25:59;;;;;;;1.35;1.20;;;;;;;;;;5040507;28;20402;-80
2023/05/09 13:28:25;;;;;;;2.27;1.50;;;;;;;;;;5030987;28;20383;-80
2023/05/09 13:30:51;;;;;;;1.40;0.90;;;;;;;;;;5033291;28;20776;-81
2023/05/09 13:33:17;;;;;;;1.23;1.13;;;;;;;;;;5031125;28;20379;-81
2023/05/09 13:35:43;;;;;;;2.22;1.20;;;;;;;;;;5030956;28;20893;-81
2023/05/09 13:38:09;;;;;;;2.10;1.30;;;;;;;;;;5030893;28;20390;-81
2023/05/09 13:40:36;;;;;;;1.45;0.90;;;;;;;;;;5045141;28;20493;-81
2023/05/09 13:43:02;;;;;;;3.00;1.20;;;;;;;;;;5051269;28;20787;-79
2023/05/09 13:45:28;;;;;;;1.63;1.10;;;;;;;;;;5051036;28;20412;-79
2023/05/09 13:47:54;;;;;;;2.10;1.10;;;;;;;;;;5046036;28;20387;-81
2023/05/09 13:50:20;;;;;;;1.75;1.30;;;;;;;;;;5039605;28;20441;-81
2023/05/09 13:52:46;;;;;;;3.30;1.55;;;;;;;;;;5033471;28;20817;-81
2023/05/09 13:55:12;;;;;;;3.43;1.20;;;;;;;;;;5031026;28;20509;-81
2023/05/09 13:57:38;;;;;;;1.67;1.57;;;;;;;;;;5030672;28;20387;-81
2023/05/09 14:00:04;;;;;;;1.58;1.20;;;;;;;;;;5030475;28;20411;-81
2023/05/09 14:02:30;;;;;;;1.75;1.00;;;;;;;;;;5030882;28;20387;-81
2023/05/09 14:04:57;;;;;;;1.20;1.10;;;;;;;;;;5030798;28;20379;-81
2023/05/09 14:07:23;;;;;;;2.22;1.20;;;;;;;;;;5030846;28;20425;-80
2023/05/09 14:09:49;;;;;;;1.13;1.00;;;;;;;;;;5033897;28;20825;-81
2023/05/09 14:12:15;;;;;;;3.10;2.20;;;;;;;;;;5041407;28;20410;-81
2023/05/09 14:14:41;;;;;;;2.00;1.80;;;;;;;;;;5030780;28;20379;-81
2023/05/09 14:17:07;;;;;;;6.30;2.25;;;;;;;;;;5030774;28;20478;-81
2023/05/09 14:19:33;;;;;;;2.05;1.50;;;;;;;;;;5038590;28;20405;-82
2023/05/09 14:21:59;;;;;;;2.35;1.65;;;;;;;;;;5044192;28;20388;-82
2023/05/09 14:24:29;;;;;;;1.30;1.02;;;;;;;;;;5049430;28;20381;-82
2023/05/09 14:26:55;;;;;;;2.10;1.20;;;;;;;;;;5039447;28;20713;-82
2023/05/09 14:29:21;;;;;;;1.87;1.37;;;;;;;;;;5039196;28;20407;-83
2023/05/09 14:31:47;;;;;;;2.00;1.00;;;;;;;;;;5043939;28;20746;-82
2023/05/09 14:34:13;;;;;;;1.50;0.90;;;;;;;;;;5043728;28;20381;-79
2023/05/09 14:36:39;;;;;;;1.67;1.58;;;;;;;;;;5048205;28;20446;-82